Terminal Aerodrome Forecast
Issued by NWS Mobile, AL

Home | Current Version | Previous Version | Text Only | Print | Product List | Glossary On
Versions: 1 2 3 4 5 6 7 8 9 10 11 12 13 14 15 16 17
000
FTUS44 KMOB 022329
TAFPNS
TAF
KPNS 022329Z 0300/0324 03008KT P6SM SCT150 OVC250
     FM030600 05007KT P6SM VCSH BKN100 OVC250
      TEMPO 0308/0312 -RA
     FM031500 06015G22KT P6SM -RA BKN070 OVC100=

USA.gov is the U.S. government's official web portal to all federal, state and local government web resources and services.